sensor_id;sensor_type;location;lat;lon;timestamp;P1;durP1;ratioP1;P2;durP2;ratioP2
2404;SDS011;1213;43.206;27.922;2023-12-14T00:00:08;37.90;;;24.37;;
2404;SDS011;1213;43.206;27.922;2023-12-14T00:02:34;37.93;;;23.50;;
2404;SDS011;1213;43.206;27.922;2023-12-14T00:04:59;38.63;;;23.77;;
2404;SDS011;1213;43.206;27.922;2023-12-14T00:07:24;38.23;;;25.17;;
2404;SDS011;1213;43.206;27.922;2023-12-14T00:09:50;36.53;;;24.67;;
2404;SDS011;1213;43.206;27.922;2023-12-14T00:12:15;34.17;;;21.73;;
2404;SDS011;1213;43.206;27.922;2023-12-14T00:14:40;35.10;;;23.57;;
2404;SDS011;1213;43.206;27.922;2023-12-14T00:17:06;32.43;;;21.80;;
2404;SDS011;1213;43.206;27.922;2023-12-14T00:19:31;41.03;;;23.47;;
2404;SDS011;1213;43.206;27.922;2023-12-14T00:21:57;37.63;;;23.93;;
2404;SDS011;1213;43.206;27.922;2023-12-14T00:24:23;31.80;;;22.77;;
2404;SDS011;1213;43.206;27.922;2023-12-14T00:26:48;37.07;;;22.13;;
2404;SDS011;1213;43.206;27.922;2023-12-14T00:29:14;30.07;;;21.50;;
2404;SDS011;1213;43.206;27.922;2023-12-14T00:31:40;36.00;;;22.60;;
2404;SDS011;1213;43.206;27.922;2023-12-14T00:34:05;31.37;;;21.27;;
2404;SDS011;1213;43.206;27.922;2023-12-14T00:36:31;34.10;;;22.00;;
2404;SDS011;1213;43.206;27.922;2023-12-14T00:38:57;34.40;;;21.37;;
2404;SDS011;1213;43.206;27.922;2023-12-14T00:41:23;36.43;;;21.60;;
2404;SDS011;1213;43.206;27.922;2023-12-14T00:43:49;30.77;;;21.00;;
2404;SDS011;1213;43.206;27.922;2023-12-14T00:46:14;31.37;;;20.80;;
2404;SDS011;1213;43.206;27.922;2023-12-14T00:48:40;35.03;;;23.50;;
2404;SDS011;1213;43.206;27.922;2023-12-14T00:51:05;41.77;;;23.70;;
2404;SDS011;1213;43.206;27.922;2023-12-14T00:53:31;33.70;;;23.13;;
2404;SDS011;1213;43.206;27.922;2023-12-14T00:55:56;34.60;;;21.80;;
2404;SDS011;1213;43.206;27.922;2023-12-14T00:58:22;34.70;;;22.77;;
2404;SDS011;1213;43.206;27.922;2023-12-14T01:00:47;30.40;;;21.80;;
2404;SDS011;1213;43.206;27.922;2023-12-14T01:03:12;34.70;;;22.40;;
2404;SDS011;1213;43.206;27.922;2023-12-14T01:05:38;35.20;;;22.30;;
2404;SDS011;1213;43.206;27.922;2023-12-14T01:08:03;32.97;;;21.80;;
2404;SDS011;1213;43.206;27.922;2023-12-14T01:10:29;38.87;;;24.67;;
2404;SDS011;1213;43.206;27.922;2023-12-14T01:12:54;34.17;;;22.80;;
2404;SDS011;1213;43.206;27.922;2023-12-14T01:15:20;39.63;;;24.53;;
2404;SDS011;1213;43.206;27.922;2023-12-14T01:17:45;35.57;;;23.13;;
2404;SDS011;1213;43.206;27.922;2023-12-14T01:20:11;36.00;;;20.97;;
2404;SDS011;1213;43.206;27.922;2023-12-14T01:22:36;33.20;;;22.93;;
2404;SDS011;1213;43.206;27.922;2023-12-14T01:25:02;33.57;;;23.50;;
2404;SDS011;1213;43.206;27.922;2023-12-14T01:27:28;37.53;;;23.07;;
2404;SDS011;1213;43.206;27.922;2023-12-14T01:29:53;35.70;;;23.93;;
2404;SDS011;1213;43.206;27.922;2023-12-14T01:32:19;33.53;;;22.47;;
2404;SDS011;1213;43.206;27.922;2023-12-14T01:34:45;36.37;;;23.80;;
2404;SDS011;1213;43.206;27.922;2023-12-14T01:37:10;32.23;;;21.47;;
2404;SDS011;1213;43.206;27.922;2023-12-14T01:39:37;37.13;;;20.50;;
2404;SDS011;1213;43.206;27.922;2023-12-14T01:42:02;31.97;;;23.17;;
2404;SDS011;1213;43.206;27.922;2023-12-14T01:44:28;38.93;;;20.37;;
2404;SDS011;1213;43.206;27.922;2023-12-14T01:46:53;27.33;;;17.23;;
2404;SDS011;1213;43.206;27.922;2023-12-14T01:49:19;30.30;;;20.30;;
2404;SDS011;1213;43.206;27.922;2023-12-14T01:51:44;34.60;;;21.37;;
2404;SDS011;1213;43.206;27.922;2023-12-14T01:54:09;28.73;;;19.17;;
2404;SDS011;1213;43.206;27.922;2023-12-14T01:56:35;33.43;;;21.37;;
2404;SDS011;1213;43.206;27.922;2023-12-14T01:59:00;34.00;;;20.60;;
2404;SDS011;1213;43.206;27.922;2023-12-14T02:01:40;34.20;;;20.77;;
2404;SDS011;1213;43.206;27.922;2023-12-14T02:04:10;31.10;;;20.57;;
2404;SDS011;1213;43.206;27.922;2023-12-14T02:06:37;29.77;;;19.67;;
2404;SDS011;1213;43.206;27.922;2023-12-14T02:09:03;34.77;;;21.63;;
2404;SDS011;1213;43.206;27.922;2023-12-14T02:11:29;34.50;;;21.60;;
2404;SDS011;1213;43.206;27.922;2023-12-14T02:13:54;42.73;;;23.67;;
2404;SDS011;1213;43.206;27.922;2023-12-14T02:16:20;39.57;;;24.00;;
2404;SDS011;1213;43.206;27.922;2023-12-14T02:18:45;37.20;;;23.73;;
2404;SDS011;1213;43.206;27.922;2023-12-14T02:21:11;37.17;;;23.50;;
2404;SDS011;1213;43.206;27.922;2023-12-14T02:23:46;43.47;;;26.70;;
2404;SDS011;1213;43.206;27.922;2023-12-14T02:26:12;53.90;;;30.00;;
2404;SDS011;1213;43.206;27.922;2023-12-14T02:28:38;49.07;;;31.90;;
2404;SDS011;1213;43.206;27.922;2023-12-14T02:31:03;49.23;;;30.03;;
2404;SDS011;1213;43.206;27.922;2023-12-14T02:33:29;45.57;;;28.77;;
2404;SDS011;1213;43.206;27.922;2023-12-14T02:35:55;50.17;;;29.03;;
2404;SDS011;1213;43.206;27.922;2023-12-14T02:38:20;53.87;;;30.37;;
2404;SDS011;1213;43.206;27.922;2023-12-14T02:40:46;43.20;;;29.17;;
2404;SDS011;1213;43.206;27.922;2023-12-14T02:43:11;44.43;;;28.90;;
2404;SDS011;1213;43.206;27.922;2023-12-14T02:45:37;38.90;;;27.97;;
2404;SDS011;1213;43.206;27.922;2023-12-14T02:48:03;48.90;;;29.73;;
2404;SDS011;1213;43.206;27.922;2023-12-14T02:50:28;46.00;;;28.27;;
2404;SDS011;1213;43.206;27.922;2023-12-14T02:52:54;44.60;;;28.07;;
2404;SDS011;1213;43.206;27.922;2023-12-14T02:55:19;45.30;;;27.00;;
2404;SDS011;1213;43.206;27.922;2023-12-14T02:57:44;45.57;;;29.03;;
2404;SDS011;1213;43.206;27.922;2023-12-14T03:00:10;43.27;;;28.10;;
2404;SDS011;1213;43.206;27.922;2023-12-14T03:02:37;46.17;;;27.10;;
2404;SDS011;1213;43.206;27.922;2023-12-14T03:05:02;45.23;;;25.60;;
2404;SDS011;1213;43.206;27.922;2023-12-14T03:07:28;40.27;;;25.57;;
2404;SDS011;1213;43.206;27.922;2023-12-14T03:09:53;36.23;;;22.90;;
2404;SDS011;1213;43.206;27.922;2023-12-14T03:12:19;37.37;;;23.70;;
2404;SDS011;1213;43.206;27.922;2023-12-14T03:14:44;38.30;;;23.33;;
2404;SDS011;1213;43.206;27.922;2023-12-14T03:17:09;40.10;;;23.20;;
2404;SDS011;1213;43.206;27.922;2023-12-14T03:19:38;38.90;;;24.43;;
2404;SDS011;1213;43.206;27.922;2023-12-14T03:22:07;33.43;;;20.50;;
2404;SDS011;1213;43.206;27.922;2023-12-14T03:24:32;40.80;;;24.90;;
2404;SDS011;1213;43.206;27.922;2023-12-14T03:26:58;36.77;;;24.83;;
2404;SDS011;1213;43.206;27.922;2023-12-14T03:29:23;36.17;;;25.40;;
2404;SDS011;1213;43.206;27.922;2023-12-14T03:31:49;36.03;;;22.93;;
2404;SDS011;1213;43.206;27.922;2023-12-14T03:34:14;44.23;;;26.83;;
2404;SDS011;1213;43.206;27.922;2023-12-14T03:36:40;41.77;;;24.67;;
2404;SDS011;1213;43.206;27.922;2023-12-14T03:39:05;39.40;;;24.73;;
2404;SDS011;1213;43.206;27.922;2023-12-14T03:41:31;36.90;;;22.60;;
2404;SDS011;1213;43.206;27.922;2023-12-14T03:43:57;35.30;;;22.27;;
2404;SDS011;1213;43.206;27.922;2023-12-14T03:46:23;37.47;;;25.30;;
2404;SDS011;1213;43.206;27.922;2023-12-14T03:48:48;39.90;;;21.97;;
2404;SDS011;1213;43.206;27.922;2023-12-14T03:51:17;34.77;;;21.70;;
2404;SDS011;1213;43.206;27.922;2023-12-14T03:53:43;33.10;;;20.47;;
2404;SDS011;1213;43.206;27.922;2023-12-14T03:56:08;28.93;;;19.27;;
2404;SDS011;1213;43.206;27.922;2023-12-14T03:58:34;28.27;;;19.10;;
2404;SDS011;1213;43.206;27.922;2023-12-14T04:00:59;33.83;;;20.77;;
2404;SDS011;1213;43.206;27.922;2023-12-14T04:03:24;26.90;;;17.93;;
2404;SDS011;1213;43.206;27.922;2023-12-14T04:05:50;28.93;;;18.57;;
2404;SDS011;1213;43.206;27.922;2023-12-14T04:08:16;24.30;;;17.53;;
2404;SDS011;1213;43.206;27.922;2023-12-14T04:10:41;22.90;;;16.87;;
2404;SDS011;1213;43.206;27.922;2023-12-14T04:13:06;27.30;;;17.57;;
2404;SDS011;1213;43.206;27.922;2023-12-14T04:15:32;40.47;;;23.30;;
2404;SDS011;1213;43.206;27.922;2023-12-14T04:17:57;30.73;;;19.90;;
2404;SDS011;1213;43.206;27.922;2023-12-14T04:20:23;37.60;;;23.83;;
2404;SDS011;1213;43.206;27.922;2023-12-14T04:22:48;27.93;;;20.00;;
2404;SDS011;1213;43.206;27.922;2023-12-14T04:25:13;32.77;;;22.70;;
2404;SDS011;1213;43.206;27.922;2023-12-14T04:27:39;37.60;;;24.60;;
2404;SDS011;1213;43.206;27.922;2023-12-14T04:30:04;35.20;;;24.10;;
2404;SDS011;1213;43.206;27.922;2023-12-14T04:32:35;35.00;;;24.73;;
2404;SDS011;1213;43.206;27.922;2023-12-14T04:35:00;28.57;;;20.97;;
2404;SDS011;1213;43.206;27.922;2023-12-14T04:37:26;41.93;;;27.53;;
2404;SDS011;1213;43.206;27.922;2023-12-14T04:39:52;33.83;;;22.30;;
2404;SDS011;1213;43.206;27.922;2023-12-14T04:42:17;37.73;;;24.30;;
2404;SDS011;1213;43.206;27.922;2023-12-14T04:44:42;32.43;;;22.93;;
2404;SDS011;1213;43.206;27.922;2023-12-14T04:47:08;24.90;;;18.00;;
2404;SDS011;1213;43.206;27.922;2023-12-14T04:49:33;29.90;;;18.87;;
2404;SDS011;1213;43.206;27.922;2023-12-14T04:51:59;34.67;;;23.60;;
2404;SDS011;1213;43.206;27.922;2023-12-14T04:54:24;37.83;;;25.00;;
2404;SDS011;1213;43.206;27.922;2023-12-14T04:56:50;48.50;;;29.57;;
2404;SDS011;1213;43.206;27.922;2023-12-14T04:59:15;44.17;;;29.27;;
2404;SDS011;1213;43.206;27.922;2023-12-14T05:01:40;46.00;;;29.30;;
2404;SDS011;1213;43.206;27.922;2023-12-14T05:04:06;49.60;;;26.57;;
2404;SDS011;1213;43.206;27.922;2023-12-14T05:06:31;43.17;;;27.10;;
2404;SDS011;1213;43.206;27.922;2023-12-14T05:08:58;40.90;;;25.77;;
2404;SDS011;1213;43.206;27.922;2023-12-14T05:11:26;44.50;;;29.70;;
2404;SDS011;1213;43.206;27.922;2023-12-14T05:13:51;50.73;;;28.90;;
2404;SDS011;1213;43.206;27.922;2023-12-14T05:16:17;41.47;;;28.20;;
2404;SDS011;1213;43.206;27.922;2023-12-14T05:18:42;46.77;;;29.13;;
2404;SDS011;1213;43.206;27.922;2023-12-14T05:21:08;41.73;;;25.70;;
2404;SDS011;1213;43.206;27.922;2023-12-14T05:23:34;43.10;;;28.30;;
2404;SDS011;1213;43.206;27.922;2023-12-14T05:26:00;37.10;;;24.80;;
2404;SDS011;1213;43.206;27.922;2023-12-14T05:28:25;46.43;;;27.20;;
2404;SDS011;1213;43.206;27.922;2023-12-14T05:30:50;43.63;;;27.40;;
2404;SDS011;1213;43.206;27.922;2023-12-14T05:33:16;43.30;;;28.17;;
2404;SDS011;1213;43.206;27.922;2023-12-14T05:35:41;42.40;;;28.17;;
2404;SDS011;1213;43.206;27.922;2023-12-14T05:38:07;47.20;;;28.73;;
2404;SDS011;1213;43.206;27.922;2023-12-14T05:40:32;39.10;;;26.27;;
2404;SDS011;1213;43.206;27.922;2023-12-14T05:42:58;38.17;;;20.07;;
2404;SDS011;1213;43.206;27.922;2023-12-14T05:45:23;27.00;;;18.57;;
2404;SDS011;1213;43.206;27.922;2023-12-14T05:47:48;36.83;;;24.17;;
2404;SDS011;1213;43.206;27.922;2023-12-14T05:50:14;36.73;;;24.17;;
2404;SDS011;1213;43.206;27.922;2023-12-14T05:52:40;28.40;;;18.70;;
2404;SDS011;1213;43.206;27.922;2023-12-14T05:55:07;29.03;;;17.50;;
2404;SDS011;1213;43.206;27.922;2023-12-14T05:57:35;25.30;;;17.47;;
2404;SDS011;1213;43.206;27.922;2023-12-14T06:00:01;33.70;;;18.77;;
2404;SDS011;1213;43.206;27.922;2023-12-14T06:02:29;32.80;;;23.83;;
2404;SDS011;1213;43.206;27.922;2023-12-14T06:04:55;27.97;;;19.37;;
2404;SDS011;1213;43.206;27.922;2023-12-14T06:07:22;26.47;;;17.47;;
2404;SDS011;1213;43.206;27.922;2023-12-14T06:09:48;27.17;;;19.23;;
2404;SDS011;1213;43.206;27.922;2023-12-14T06:12:13;23.40;;;17.53;;
2404;SDS011;1213;43.206;27.922;2023-12-14T06:14:39;25.80;;;19.60;;
2404;SDS011;1213;43.206;27.922;2023-12-14T06:17:04;30.37;;;22.53;;
2404;SDS011;1213;43.206;27.922;2023-12-14T06:19:30;37.33;;;23.93;;
2404;SDS011;1213;43.206;27.922;2023-12-14T06:21:55;44.33;;;25.43;;
2404;SDS011;1213;43.206;27.922;2023-12-14T06:24:21;38.60;;;24.90;;
2404;SDS011;1213;43.206;27.922;2023-12-14T06:26:47;43.03;;;27.07;;
2404;SDS011;1213;43.206;27.922;2023-12-14T06:29:13;37.97;;;29.90;;
2404;SDS011;1213;43.206;27.922;2023-12-14T06:31:39;45.67;;;29.03;;
2404;SDS011;1213;43.206;27.922;2023-12-14T06:34:05;43.53;;;30.50;;
2404;SDS011;1213;43.206;27.922;2023-12-14T06:36:31;35.53;;;26.20;;
2404;SDS011;1213;43.206;27.922;2023-12-14T06:38:58;36.90;;;24.40;;
2404;SDS011;1213;43.206;27.922;2023-12-14T06:41:25;37.33;;;24.37;;
2404;SDS011;1213;43.206;27.922;2023-12-14T06:43:51;34.07;;;24.10;;
2404;SDS011;1213;43.206;27.922;2023-12-14T06:46:20;32.83;;;24.50;;
2404;SDS011;1213;43.206;27.922;2023-12-14T06:48:46;38.03;;;25.63;;
2404;SDS011;1213;43.206;27.922;2023-12-14T06:51:12;35.60;;;22.10;;
2404;SDS011;1213;43.206;27.922;2023-12-14T06:53:41;36.83;;;24.63;;
2404;SDS011;1213;43.206;27.922;2023-12-14T06:56:12;36.10;;;25.70;;
2404;SDS011;1213;43.206;27.922;2023-12-14T06:58:41;36.70;;;23.90;;
2404;SDS011;1213;43.206;27.922;2023-12-14T07:01:17;39.97;;;27.23;;
2404;SDS011;1213;43.206;27.922;2023-12-14T07:03:43;36.27;;;24.37;;
2404;SDS011;1213;43.206;27.922;2023-12-14T07:06:15;38.87;;;27.10;;
2404;SDS011;1213;43.206;27.922;2023-12-14T07:08:42;38.90;;;25.80;;
2404;SDS011;1213;43.206;27.922;2023-12-14T07:11:08;34.90;;;25.87;;
2404;SDS011;1213;43.206;27.922;2023-12-14T07:13:33;39.57;;;26.63;;
2404;SDS011;1213;43.206;27.922;2023-12-14T07:16:02;35.10;;;25.00;;
2404;SDS011;1213;43.206;27.922;2023-12-14T07:18:30;33.07;;;25.30;;
2404;SDS011;1213;43.206;27.922;2023-12-14T07:20:55;42.07;;;26.20;;
2404;SDS011;1213;43.206;27.922;2023-12-14T07:23:20;31.43;;;21.47;;
2404;SDS011;1213;43.206;27.922;2023-12-14T07:25:46;30.67;;;22.00;;
2404;SDS011;1213;43.206;27.922;2023-12-14T07:28:11;35.40;;;25.80;;
2404;SDS011;1213;43.206;27.922;2023-12-14T07:30:37;36.13;;;23.20;;
2404;SDS011;1213;43.206;27.922;2023-12-14T07:33:02;32.43;;;25.07;;
2404;SDS011;1213;43.206;27.922;2023-12-14T07:35:27;37.47;;;24.90;;
2404;SDS011;1213;43.206;27.922;2023-12-14T07:37:53;33.17;;;24.57;;
2404;SDS011;1213;43.206;27.922;2023-12-14T07:40:19;33.20;;;24.53;;
2404;SDS011;1213;43.206;27.922;2023-12-14T07:42:44;37.80;;;27.10;;
2404;SDS011;1213;43.206;27.922;2023-12-14T07:45:10;40.93;;;28.03;;
2404;SDS011;1213;43.206;27.922;2023-12-14T07:47:36;38.43;;;25.23;;
2404;SDS011;1213;43.206;27.922;2023-12-14T07:50:01;49.03;;;28.43;;
2404;SDS011;1213;43.206;27.922;2023-12-14T07:52:28;45.73;;;30.47;;
2404;SDS011;1213;43.206;27.922;2023-12-14T07:54:54;39.97;;;29.00;;
2404;SDS011;1213;43.206;27.922;2023-12-14T07:57:19;41.60;;;29.43;;
2404;SDS011;1213;43.206;27.922;2023-12-14T07:59:45;41.10;;;30.90;;
2404;SDS011;1213;43.206;27.922;2023-12-14T08:02:11;49.30;;;31.63;;
2404;SDS011;1213;43.206;27.922;2023-12-14T08:04:36;43.57;;;32.67;;
2404;SDS011;1213;43.206;27.922;2023-12-14T08:07:02;41.27;;;30.97;;
2404;SDS011;1213;43.206;27.922;2023-12-14T08:09:27;35.93;;;27.97;;
2404;SDS011;1213;43.206;27.922;2023-12-14T08:11:53;34.40;;;22.63;;
2404;SDS011;1213;43.206;27.922;2023-12-14T08:14:19;34.53;;;22.07;;
2404;SDS011;1213;43.206;27.922;2023-12-14T08:16:44;32.87;;;24.53;;
2404;SDS011;1213;43.206;27.922;2023-12-14T08:19:09;35.43;;;22.57;;
2404;SDS011;1213;43.206;27.922;2023-12-14T08:21:36;47.60;;;28.93;;
2404;SDS011;1213;43.206;27.922;2023-12-14T08:24:01;41.87;;;30.03;;
2404;SDS011;1213;43.206;27.922;2023-12-14T08:26:27;111.70;;;35.47;;
2404;SDS011;1213;43.206;27.922;2023-12-14T08:28:52;40.60;;;29.30;;
2404;SDS011;1213;43.206;27.922;2023-12-14T08:31:18;39.57;;;28.50;;
2404;SDS011;1213;43.206;27.922;2023-12-14T08:33:43;34.00;;;24.60;;
2404;SDS011;1213;43.206;27.922;2023-12-14T08:36:09;45.70;;;31.73;;
2404;SDS011;1213;43.206;27.922;2023-12-14T08:38:34;42.33;;;30.47;;
2404;SDS011;1213;43.206;27.922;2023-12-14T08:40:59;36.00;;;25.13;;
2404;SDS011;1213;43.206;27.922;2023-12-14T08:43:25;34.27;;;21.27;;
2404;SDS011;1213;43.206;27.922;2023-12-14T08:45:51;28.83;;;19.67;;
2404;SDS011;1213;43.206;27.922;2023-12-14T08:48:17;34.70;;;22.73;;
2404;SDS011;1213;43.206;27.922;2023-12-14T08:50:42;39.30;;;25.00;;
2404;SDS011;1213;43.206;27.922;2023-12-14T08:53:08;36.40;;;24.37;;
2404;SDS011;1213;43.206;27.922;2023-12-14T08:55:34;34.93;;;23.13;;
2404;SDS011;1213;43.206;27.922;2023-12-14T08:57:59;40.10;;;22.13;;
2404;SDS011;1213;43.206;27.922;2023-12-14T09:00:25;36.87;;;23.67;;
2404;SDS011;1213;43.206;27.922;2023-12-14T09:02:51;41.90;;;25.63;;
2404;SDS011;1213;43.206;27.922;2023-12-14T09:05:16;41.57;;;27.80;;
2404;SDS011;1213;43.206;27.922;2023-12-14T09:07:45;35.70;;;23.63;;
2404;SDS011;1213;43.206;27.922;2023-12-14T09:10:10;29.30;;;17.07;;
2404;SDS011;1213;43.206;27.922;2023-12-14T09:12:36;44.40;;;25.43;;
2404;SDS011;1213;43.206;27.922;2023-12-14T09:15:01;43.97;;;23.03;;
2404;SDS011;1213;43.206;27.922;2023-12-14T09:17:27;24.60;;;18.10;;
2404;SDS011;1213;43.206;27.922;2023-12-14T09:20:01;40.20;;;19.03;;
2404;SDS011;1213;43.206;27.922;2023-12-14T09:22:29;32.10;;;16.17;;
2404;SDS011;1213;43.206;27.922;2023-12-14T09:24:55;25.47;;;16.10;;
2404;SDS011;1213;43.206;27.922;2023-12-14T09:27:20;28.93;;;16.53;;
2404;SDS011;1213;43.206;27.922;2023-12-14T09:29:46;25.20;;;14.63;;
2404;SDS011;1213;43.206;27.922;2023-12-14T09:32:11;26.30;;;15.80;;
2404;SDS011;1213;43.206;27.922;2023-12-14T09:34:36;50.10;;;15.93;;
2404;SDS011;1213;43.206;27.922;2023-12-14T09:37:02;58.30;;;21.50;;
2404;SDS011;1213;43.206;27.922;2023-12-14T09:39:27;61.40;;;28.90;;
2404;SDS011;1213;43.206;27.922;2023-12-14T09:42:00;74.93;;;37.27;;
2404;SDS011;1213;43.206;27.922;2023-12-14T09:44:29;83.47;;;37.20;;
2404;SDS011;1213;43.206;27.922;2023-12-14T09:46:55;80.07;;;40.13;;
2404;SDS011;1213;43.206;27.922;2023-12-14T09:49:22;64.30;;;35.40;;
2404;SDS011;1213;43.206;27.922;2023-12-14T09:51:49;88.93;;;32.20;;
2404;SDS011;1213;43.206;27.922;2023-12-14T09:54:15;37.10;;;22.83;;
2404;SDS011;1213;43.206;27.922;2023-12-14T09:56:47;28.53;;;16.97;;
2404;SDS011;1213;43.206;27.922;2023-12-14T09:59:13;26.60;;;15.53;;
2404;SDS011;1213;43.206;27.922;2023-12-14T10:01:39;28.67;;;16.13;;
2404;SDS011;1213;43.206;27.922;2023-12-14T10:04:11;47.40;;;16.23;;
2404;SDS011;1213;43.206;27.922;2023-12-14T10:06:38;25.33;;;14.87;;
2404;SDS011;1213;43.206;27.922;2023-12-14T10:09:05;19.73;;;13.27;;
2404;SDS011;1213;43.206;27.922;2023-12-14T10:11:35;34.87;;;13.37;;
2404;SDS011;1213;43.206;27.922;2023-12-14T10:14:01;21.17;;;14.27;;
2404;SDS011;1213;43.206;27.922;2023-12-14T10:16:31;38.07;;;17.30;;
2404;SDS011;1213;43.206;27.922;2023-12-14T10:18:57;57.00;;;17.40;;
2404;SDS011;1213;43.206;27.922;2023-12-14T10:21:27;18.50;;;13.37;;
2404;SDS011;1213;43.206;27.922;2023-12-14T10:23:56;20.63;;;11.93;;
2404;SDS011;1213;43.206;27.922;2023-12-14T10:26:25;21.23;;;9.73;;
2404;SDS011;1213;43.206;27.922;2023-12-14T10:28:51;16.43;;;12.87;;
2404;SDS011;1213;43.206;27.922;2023-12-14T10:31:20;19.20;;;10.80;;
2404;SDS011;1213;43.206;27.922;2023-12-14T10:33:46;23.20;;;12.60;;
2404;SDS011;1213;43.206;27.922;2023-12-14T10:36:18;18.83;;;12.33;;
2404;SDS011;1213;43.206;27.922;2023-12-14T10:38:48;22.20;;;13.60;;
2404;SDS011;1213;43.206;27.922;2023-12-14T10:41:17;17.03;;;13.00;;
2404;SDS011;1213;43.206;27.922;2023-12-14T10:43:43;29.50;;;14.27;;
2404;SDS011;1213;43.206;27.922;2023-12-14T10:46:12;17.13;;;12.90;;
2404;SDS011;1213;43.206;27.922;2023-12-14T10:48:40;25.17;;;12.33;;
2404;SDS011;1213;43.206;27.922;2023-12-14T10:51:09;20.37;;;12.33;;
2404;SDS011;1213;43.206;27.922;2023-12-14T10:53:39;13.63;;;9.10;;
2404;SDS011;1213;43.206;27.922;2023-12-14T10:56:05;41.37;;;17.10;;
2404;SDS011;1213;43.206;27.922;2023-12-14T10:58:50;26.23;;;11.17;;
2404;SDS011;1213;43.206;27.922;2023-12-14T11:01:21;60.50;;;38.67;;
2404;SDS011;1213;43.206;27.922;2023-12-14T11:03:54;14.90;;;9.80;;
2404;SDS011;1213;43.206;27.922;2023-12-14T11:08:53;30.87;;;13.07;;
2404;SDS011;1213;43.206;27.922;2023-12-14T11:11:20;18.93;;;11.50;;
2404;SDS011;1213;43.206;27.922;2023-12-14T11:13:52;15.77;;;11.23;;
2404;SDS011;1213;43.206;27.922;2023-12-14T11:16:22;17.30;;;9.70;;
2404;SDS011;1213;43.206;27.922;2023-12-14T11:24:20;20.93;;;12.30;;
2404;SDS011;1213;43.206;27.922;2023-12-14T11:26:48;23.53;;;12.67;;
2404;SDS011;1213;43.206;27.922;2023-12-14T11:29:14;25.70;;;12.20;;
2404;SDS011;1213;43.206;27.922;2023-12-14T11:31:40;16.17;;;7.50;;
2404;SDS011;1213;43.206;27.922;2023-12-14T11:34:05;10.97;;;5.27;;
2404;SDS011;1213;43.206;27.922;2023-12-14T11:36:32;6.90;;;5.50;;
2404;SDS011;1213;43.206;27.922;2023-12-14T11:38:58;9.93;;;4.77;;
2404;SDS011;1213;43.206;27.922;2023-12-14T11:41:23;8.20;;;5.63;;
2404;SDS011;1213;43.206;27.922;2023-12-14T11:43:50;12.87;;;6.07;;
2404;SDS011;1213;43.206;27.922;2023-12-14T11:46:16;10.77;;;5.70;;
2404;SDS011;1213;43.206;27.922;2023-12-14T11:48:45;12.80;;;4.57;;
2404;SDS011;1213;43.206;27.922;2023-12-14T11:51:11;7.53;;;3.97;;
2404;SDS011;1213;43.206;27.922;2023-12-14T11:53:36;9.20;;;4.30;;
2404;SDS011;1213;43.206;27.922;2023-12-14T11:56:06;5.90;;;3.80;;
2404;SDS011;1213;43.206;27.922;2023-12-14T11:58:32;9.50;;;4.00;;
2404;SDS011;1213;43.206;27.922;2023-12-14T12:03:42;12.17;;;4.70;;
2404;SDS011;1213;43.206;27.922;2023-12-14T12:06:09;6.63;;;4.37;;
2404;SDS011;1213;43.206;27.922;2023-12-14T12:08:47;11.00;;;5.00;;
2404;SDS011;1213;43.206;27.922;2023-12-14T12:11:16;12.63;;;5.60;;
2404;SDS011;1213;43.206;27.922;2023-12-14T12:13:50;6.67;;;4.63;;
2404;SDS011;1213;43.206;27.922;2023-12-14T12:16:22;10.10;;;5.60;;
2404;SDS011;1213;43.206;27.922;2023-12-14T12:18:48;21.67;;;8.40;;
2404;SDS011;1213;43.206;27.922;2023-12-14T12:21:15;3.73;;;3.43;;
2404;SDS011;1213;43.206;27.922;2023-12-14T12:23:41;4.80;;;3.90;;
2404;SDS011;1213;43.206;27.922;2023-12-14T12:26:07;8.30;;;5.67;;
2404;SDS011;1213;43.206;27.922;2023-12-14T12:28:33;6.43;;;4.60;;
2404;SDS011;1213;43.206;27.922;2023-12-14T12:30:58;6.33;;;5.20;;
2404;SDS011;1213;43.206;27.922;2023-12-14T12:33:27;6.53;;;4.30;;
2404;SDS011;1213;43.206;27.922;2023-12-14T12:35:52;6.13;;;3.50;;
2404;SDS011;1213;43.206;27.922;2023-12-14T12:38:19;5.63;;;3.37;;
2404;SDS011;1213;43.206;27.922;2023-12-14T12:40:44;3.83;;;2.97;;
2404;SDS011;1213;43.206;27.922;2023-12-14T12:43:10;4.27;;;3.17;;
2404;SDS011;1213;43.206;27.922;2023-12-14T12:45:36;5.53;;;3.67;;
2404;SDS011;1213;43.206;27.922;2023-12-14T12:48:02;5.60;;;3.70;;
2404;SDS011;1213;43.206;27.922;2023-12-14T12:50:29;5.90;;;3.53;;
2404;SDS011;1213;43.206;27.922;2023-12-14T12:52:55;3.83;;;2.90;;
2404;SDS011;1213;43.206;27.922;2023-12-14T12:55:20;3.23;;;2.87;;
2404;SDS011;1213;43.206;27.922;2023-12-14T12:57:46;6.43;;;3.80;;
2404;SDS011;1213;43.206;27.922;2023-12-14T13:00:13;6.40;;;4.23;;
2404;SDS011;1213;43.206;27.922;2023-12-14T13:02:39;6.17;;;4.50;;
2404;SDS011;1213;43.206;27.922;2023-12-14T13:05:08;12.57;;;6.17;;
2404;SDS011;1213;43.206;27.922;2023-12-14T13:07:35;10.93;;;5.57;;
2404;SDS011;1213;43.206;27.922;2023-12-14T13:10:01;6.07;;;4.20;;
2404;SDS011;1213;43.206;27.922;2023-12-14T13:12:29;7.43;;;3.60;;
2404;SDS011;1213;43.206;27.922;2023-12-14T13:14:55;9.37;;;2.77;;
2404;SDS011;1213;43.206;27.922;2023-12-14T13:17:20;3.50;;;2.40;;
2404;SDS011;1213;43.206;27.922;2023-12-14T13:19:46;13.83;;;3.73;;
2404;SDS011;1213;43.206;27.922;2023-12-14T13:22:11;4.93;;;3.63;;
2404;SDS011;1213;43.206;27.922;2023-12-14T13:24:37;7.90;;;4.50;;
2404;SDS011;1213;43.206;27.922;2023-12-14T13:27:03;6.20;;;3.33;;
2404;SDS011;1213;43.206;27.922;2023-12-14T13:29:29;5.50;;;4.13;;
2404;SDS011;1213;43.206;27.922;2023-12-14T13:31:57;17.50;;;4.70;;
2404;SDS011;1213;43.206;27.922;2023-12-14T13:34:22;6.60;;;4.80;;
2404;SDS011;1213;43.206;27.922;2023-12-14T13:36:47;19.93;;;7.83;;
2404;SDS011;1213;43.206;27.922;2023-12-14T13:39:13;11.23;;;6.53;;
2404;SDS011;1213;43.206;27.922;2023-12-14T13:41:39;12.23;;;7.63;;
2404;SDS011;1213;43.206;27.922;2023-12-14T13:44:04;9.90;;;7.37;;
2404;SDS011;1213;43.206;27.922;2023-12-14T13:46:30;10.00;;;6.63;;
2404;SDS011;1213;43.206;27.922;2023-12-14T13:48:55;16.43;;;6.73;;
2404;SDS011;1213;43.206;27.922;2023-12-14T13:51:21;11.67;;;4.17;;
2404;SDS011;1213;43.206;27.922;2023-12-14T13:53:46;7.17;;;5.90;;
2404;SDS011;1213;43.206;27.922;2023-12-14T13:56:11;6.07;;;4.50;;
2404;SDS011;1213;43.206;27.922;2023-12-14T13:58:37;3.87;;;3.03;;
2404;SDS011;1213;43.206;27.922;2023-12-14T14:01:03;3.70;;;3.40;;
2404;SDS011;1213;43.206;27.922;2023-12-14T14:03:32;6.20;;;4.27;;
2404;SDS011;1213;43.206;27.922;2023-12-14T14:05:59;6.80;;;3.93;;
2404;SDS011;1213;43.206;27.922;2023-12-14T14:08:24;5.20;;;4.23;;
2404;SDS011;1213;43.206;27.922;2023-12-14T14:10:49;6.10;;;2.53;;
2404;SDS011;1213;43.206;27.922;2023-12-14T14:13:15;7.60;;;4.00;;
2404;SDS011;1213;43.206;27.922;2023-12-14T14:15:40;13.30;;;4.50;;
2404;SDS011;1213;43.206;27.922;2023-12-14T14:18:06;9.00;;;4.03;;
2404;SDS011;1213;43.206;27.922;2023-12-14T14:20:31;10.87;;;5.17;;
2404;SDS011;1213;43.206;27.922;2023-12-14T14:22:56;11.13;;;6.77;;
2404;SDS011;1213;43.206;27.922;2023-12-14T14:25:24;8.07;;;5.80;;
2404;SDS011;1213;43.206;27.922;2023-12-14T14:27:50;9.60;;;5.93;;
2404;SDS011;1213;43.206;27.922;2023-12-14T14:30:15;15.70;;;7.20;;
2404;SDS011;1213;43.206;27.922;2023-12-14T14:32:41;10.60;;;7.37;;
2404;SDS011;1213;43.206;27.922;2023-12-14T14:35:07;17.80;;;10.10;;
2404;SDS011;1213;43.206;27.922;2023-12-14T14:37:33;22.27;;;10.50;;
2404;SDS011;1213;43.206;27.922;2023-12-14T14:39:59;16.53;;;11.03;;
2404;SDS011;1213;43.206;27.922;2023-12-14T14:42:25;18.27;;;10.80;;